sensor_id;sensor_type;location;lat;lon;timestamp;pressure;altitude;pressure_sealevel;temperature;humidity
83140;BME280;73027;54.208;19.128;2024-01-15T00:01:21;98906.03;;;2.16;78.94
83140;BME280;73027;54.208;19.128;2024-01-15T00:03:47;98893.59;;;2.07;78.52
83140;BME280;73027;54.208;19.128;2024-01-15T00:06:13;98904.50;;;2.10;78.34
83140;BME280;73027;54.208;19.128;2024-01-15T00:08:38;98891.16;;;2.04;78.78
83140;BME280;73027;54.208;19.128;2024-01-15T00:11:05;98892.75;;;2.08;78.79
83140;BME280;73027;54.208;19.128;2024-01-15T00:13:30;98895.41;;;2.03;79.26
83140;BME280;73027;54.208;19.128;2024-01-15T00:15:56;98887.81;;;2.02;79.60
83140;BME280;73027;54.208;19.128;2024-01-15T00:18:21;98872.41;;;2.08;79.20
83140;BME280;73027;54.208;19.128;2024-01-15T00:20:47;98877.50;;;2.08;79.48
83140;BME280;73027;54.208;19.128;2024-01-15T00:23:12;98869.28;;;2.00;79.87
83140;BME280;73027;54.208;19.128;2024-01-15T00:25:39;98860.06;;;1.96;79.69
83140;BME280;73027;54.208;19.128;2024-01-15T00:28:04;98871.94;;;1.95;79.53
83140;BME280;73027;54.208;19.128;2024-01-15T00:30:30;98860.84;;;1.98;79.47
83140;BME280;73027;54.208;19.128;2024-01-15T00:33:01;98865.19;;;1.94;79.83
83140;BME280;73027;54.208;19.128;2024-01-15T00:35:27;98861.81;;;1.93;79.58
83140;BME280;73027;54.208;19.128;2024-01-15T00:37:52;98844.97;;;1.91;79.11
83140;BME280;73027;54.208;19.128;2024-01-15T00:40:18;98847.47;;;1.92;79.24
83140;BME280;73027;54.208;19.128;2024-01-15T00:42:43;98845.78;;;1.93;79.80
83140;BME280;73027;54.208;19.128;2024-01-15T00:45:09;98837.13;;;1.99;79.43
83140;BME280;73027;54.208;19.128;2024-01-15T00:47:36;98837.78;;;2.05;78.95
83140;BME280;73027;54.208;19.128;2024-01-15T00:50:01;98799.16;;;1.96;79.03
83140;BME280;73027;54.208;19.128;2024-01-15T00:52:27;98819.72;;;2.14;79.10
83140;BME280;73027;54.208;19.128;2024-01-15T00:54:52;98817.91;;;2.18;78.62
83140;BME280;73027;54.208;19.128;2024-01-15T00:57:17;98806.41;;;2.08;77.97
83140;BME280;73027;54.208;19.128;2024-01-15T00:59:44;98807.31;;;2.05;78.21
83140;BME280;73027;54.208;19.128;2024-01-15T01:02:10;98801.31;;;2.08;78.02
83140;BME280;73027;54.208;19.128;2024-01-15T01:04:35;98810.56;;;2.09;77.77
83140;BME280;73027;54.208;19.128;2024-01-15T01:07:01;98809.31;;;1.96;78.46
83140;BME280;73027;54.208;19.128;2024-01-15T01:09:26;98795.00;;;1.93;78.34
83140;BME280;73027;54.208;19.128;2024-01-15T01:11:55;98781.72;;;1.83;78.78
83140;BME280;73027;54.208;19.128;2024-01-15T01:14:20;98783.56;;;1.78;78.62
83140;BME280;73027;54.208;19.128;2024-01-15T01:16:45;98784.41;;;1.79;79.70
83140;BME280;73027;54.208;19.128;2024-01-15T01:19:11;98790.97;;;1.86;79.91
83140;BME280;73027;54.208;19.128;2024-01-15T01:21:36;98785.22;;;1.81;79.54
83140;BME280;73027;54.208;19.128;2024-01-15T01:24:02;98775.22;;;1.75;79.89
83140;BME280;73027;54.208;19.128;2024-01-15T01:26:27;98780.50;;;1.69;80.74
83140;BME280;73027;54.208;19.128;2024-01-15T01:28:53;98762.84;;;1.64;80.81
83140;BME280;73027;54.208;19.128;2024-01-15T01:31:18;98769.72;;;1.61;80.72
83140;BME280;73027;54.208;19.128;2024-01-15T01:33:44;98751.13;;;1.60;80.65
83140;BME280;73027;54.208;19.128;2024-01-15T01:36:09;98756.09;;;1.63;81.17
83140;BME280;73027;54.208;19.128;2024-01-15T01:38:35;98745.88;;;1.66;80.89
83140;BME280;73027;54.208;19.128;2024-01-15T01:41:01;98749.69;;;1.79;81.20
83140;BME280;73027;54.208;19.128;2024-01-15T01:43:26;98743.84;;;1.77;80.11
83140;BME280;73027;54.208;19.128;2024-01-15T01:45:52;98733.78;;;1.74;80.65
83140;BME280;73027;54.208;19.128;2024-01-15T01:48:20;98718.84;;;1.65;79.76
83140;BME280;73027;54.208;19.128;2024-01-15T01:50:45;98730.09;;;1.84;80.25
83140;BME280;73027;54.208;19.128;2024-01-15T01:53:10;98729.25;;;1.84;79.46
83140;BME280;73027;54.208;19.128;2024-01-15T01:55:36;98715.84;;;1.80;79.56
83140;BME280;73027;54.208;19.128;2024-01-15T01:58:03;98726.63;;;1.87;79.51
83140;BME280;73027;54.208;19.128;2024-01-15T02:00:32;98727.50;;;1.86;80.02
83140;BME280;73027;54.208;19.128;2024-01-15T02:02:58;98720.72;;;1.86;80.21
83140;BME280;73027;54.208;19.128;2024-01-15T02:05:24;98727.34;;;1.90;79.14
83140;BME280;73027;54.208;19.128;2024-01-15T02:07:49;98714.66;;;1.90;80.23
83140;BME280;73027;54.208;19.128;2024-01-15T02:10:15;98714.66;;;1.90;79.65
83140;BME280;73027;54.208;19.128;2024-01-15T02:12:42;98713.00;;;1.89;80.21
83140;BME280;73027;54.208;19.128;2024-01-15T02:15:07;98701.25;;;1.87;79.86
83140;BME280;73027;54.208;19.128;2024-01-15T02:17:33;98690.06;;;1.92;80.33
83140;BME280;73027;54.208;19.128;2024-01-15T02:19:58;98682.47;;;1.92;79.93
83140;BME280;73027;54.208;19.128;2024-01-15T02:22:24;98692.41;;;1.99;80.01
83140;BME280;73027;54.208;19.128;2024-01-15T02:24:49;98687.03;;;2.08;80.06
83140;BME280;73027;54.208;19.128;2024-01-15T02:27:15;98669.88;;;2.14;79.83
83140;BME280;73027;54.208;19.128;2024-01-15T02:29:40;98673.56;;;2.06;79.81
83140;BME280;73027;54.208;19.128;2024-01-15T02:32:06;98651.63;;;2.03;80.27
83140;BME280;73027;54.208;19.128;2024-01-15T02:34:32;98661.31;;;1.92;79.37
83140;BME280;73027;54.208;19.128;2024-01-15T02:36:58;98643.91;;;1.81;80.09
83140;BME280;73027;54.208;19.128;2024-01-15T02:39:23;98639.03;;;1.74;80.39
83140;BME280;73027;54.208;19.128;2024-01-15T02:41:49;98639.28;;;1.66;80.71
83140;BME280;73027;54.208;19.128;2024-01-15T02:44:14;98636.75;;;1.66;80.80
83140;BME280;73027;54.208;19.128;2024-01-15T02:46:39;98639.34;;;1.65;79.77
83140;BME280;73027;54.208;19.128;2024-01-15T02:49:05;98628.31;;;1.66;80.01
83140;BME280;73027;54.208;19.128;2024-01-15T02:51:30;98622.31;;;1.68;80.36
83140;BME280;73027;54.208;19.128;2024-01-15T02:53:55;98626.66;;;1.65;80.26
83140;BME280;73027;54.208;19.128;2024-01-15T02:56:21;98617.38;;;1.64;80.36
83140;BME280;73027;54.208;19.128;2024-01-15T02:58:46;98608.81;;;1.66;80.87
83140;BME280;73027;54.208;19.128;2024-01-15T03:01:12;98604.34;;;1.74;79.82
83140;BME280;73027;54.208;19.128;2024-01-15T03:03:37;98603.47;;;1.75;80.16
83140;BME280;73027;54.208;19.128;2024-01-15T03:06:03;98590.81;;;1.74;79.94
83140;BME280;73027;54.208;19.128;2024-01-15T03:08:28;98584.97;;;1.72;79.78
83140;BME280;73027;54.208;19.128;2024-01-15T03:10:54;98589.94;;;1.75;80.42
83140;BME280;73027;54.208;19.128;2024-01-15T03:13:19;98590.00;;;1.73;79.67
83140;BME280;73027;54.208;19.128;2024-01-15T03:15:45;98572.78;;;1.57;79.50
83140;BME280;73027;54.208;19.128;2024-01-15T03:18:10;98590.34;;;1.63;80.39
83140;BME280;73027;54.208;19.128;2024-01-15T03:20:36;98575.22;;;1.60;80.37
83140;BME280;73027;54.208;19.128;2024-01-15T03:23:03;98581.91;;;1.62;80.31
83140;BME280;73027;54.208;19.128;2024-01-15T03:25:29;98571.84;;;1.59;81.02
83140;BME280;73027;54.208;19.128;2024-01-15T03:27:54;98573.72;;;1.54;81.16
83140;BME280;73027;54.208;19.128;2024-01-15T03:30:19;98558.66;;;1.50;81.68
83140;BME280;73027;54.208;19.128;2024-01-15T03:32:45;98549.38;;;1.49;81.43
83140;BME280;73027;54.208;19.128;2024-01-15T03:35:12;98554.44;;;1.49;81.17
83140;BME280;73027;54.208;19.128;2024-01-15T03:37:38;98537.69;;;1.43;82.25
83140;BME280;73027;54.208;19.128;2024-01-15T03:40:03;98544.97;;;1.54;82.18
83140;BME280;73027;54.208;19.128;2024-01-15T03:42:30;98546.69;;;1.53;81.40
83140;BME280;73027;54.208;19.128;2024-01-15T03:44:55;98543.94;;;1.59;81.78
83140;BME280;73027;54.208;19.128;2024-01-15T03:47:20;98541.41;;;1.59;81.45
83140;BME280;73027;54.208;19.128;2024-01-15T03:49:46;98532.09;;;1.60;81.28
83140;BME280;73027;54.208;19.128;2024-01-15T03:52:11;98530.50;;;1.57;81.53
83140;BME280;73027;54.208;19.128;2024-01-15T03:54:37;98510.94;;;1.59;81.63
83140;BME280;73027;54.208;19.128;2024-01-15T03:57:03;98523.59;;;1.61;81.47
83140;BME280;73027;54.208;19.128;2024-01-15T03:59:28;98514.44;;;1.57;81.77
83140;BME280;73027;54.208;19.128;2024-01-15T04:01:54;98514.44;;;1.57;81.78
83140;BME280;73027;54.208;19.128;2024-01-15T04:04:19;98513.63;;;1.55;82.07
83140;BME280;73027;54.208;19.128;2024-01-15T04:06:45;98512.84;;;1.54;82.10
83140;BME280;73027;54.208;19.128;2024-01-15T04:09:12;98512.72;;;1.57;81.84
83140;BME280;73027;54.208;19.128;2024-01-15T04:11:38;98499.00;;;1.63;81.40
83140;BME280;73027;54.208;19.128;2024-01-15T04:14:03;98495.63;;;1.62;81.47
83140;BME280;73027;54.208;19.128;2024-01-15T04:16:29;98491.63;;;1.55;80.77
83140;BME280;73027;54.208;19.128;2024-01-15T04:18:54;98491.50;;;1.60;80.84
83140;BME280;73027;54.208;19.128;2024-01-15T04:21:20;98481.16;;;1.66;81.53
83140;BME280;73027;54.208;19.128;2024-01-15T04:23:45;98477.09;;;1.60;80.49
83140;BME280;73027;54.208;19.128;2024-01-15T04:26:10;98464.56;;;1.56;80.84
83140;BME280;73027;54.208;19.128;2024-01-15T04:28:36;98471.44;;;1.52;81.24
83140;BME280;73027;54.208;19.128;2024-01-15T04:31:01;98468.88;;;1.54;81.19
83140;BME280;73027;54.208;19.128;2024-01-15T04:33:27;98456.81;;;1.60;81.99
83140;BME280;73027;54.208;19.128;2024-01-15T04:35:52;98449.44;;;1.53;81.03
83140;BME280;73027;54.208;19.128;2024-01-15T04:38:18;98446.63;;;1.62;81.41
83140;BME280;73027;54.208;19.128;2024-01-15T04:40:43;98463.28;;;1.69;81.33
83140;BME280;73027;54.208;19.128;2024-01-15T04:43:08;98434.66;;;1.65;81.16
83140;BME280;73027;54.208;19.128;2024-01-15T04:45:34;98438.00;;;1.66;81.71
83140;BME280;73027;54.208;19.128;2024-01-15T04:47:59;98440.63;;;1.63;80.71
83140;BME280;73027;54.208;19.128;2024-01-15T04:50:25;98431.69;;;1.53;81.96
83140;BME280;73027;54.208;19.128;2024-01-15T04:52:50;98413.31;;;1.46;81.95
83140;BME280;73027;54.208;19.128;2024-01-15T04:55:16;98410.63;;;1.51;81.54
83140;BME280;73027;54.208;19.128;2024-01-15T04:57:41;98420.41;;;1.61;82.31
83140;BME280;73027;54.208;19.128;2024-01-15T05:00:07;98414.09;;;1.48;81.42
83140;BME280;73027;54.208;19.128;2024-01-15T05:02:32;98396.09;;;1.31;82.46
83140;BME280;73027;54.208;19.128;2024-01-15T05:04:58;98409.25;;;1.42;82.38
83140;BME280;73027;54.208;19.128;2024-01-15T05:07:23;98428.88;;;1.35;83.15
83140;BME280;73027;54.208;19.128;2024-01-15T05:09:49;98410.22;;;1.38;82.85
83140;BME280;73027;54.208;19.128;2024-01-15T05:12:14;98399.91;;;1.42;82.59
83140;BME280;73027;54.208;19.128;2024-01-15T05:14:40;98396.66;;;1.39;83.44
83140;BME280;73027;54.208;19.128;2024-01-15T05:17:05;98398.63;;;1.31;83.46
83140;BME280;73027;54.208;19.128;2024-01-15T05:19:30;98393.63;;;1.28;83.77
83140;BME280;73027;54.208;19.128;2024-01-15T05:21:56;98392.78;;;1.29;83.64
83140;BME280;73027;54.208;19.128;2024-01-15T05:24:21;98397.84;;;1.29;83.01
83140;BME280;73027;54.208;19.128;2024-01-15T05:26:47;98393.50;;;1.32;83.13
83140;BME280;73027;54.208;19.128;2024-01-15T05:29:12;98385.16;;;1.29;83.61
83140;BME280;73027;54.208;19.128;2024-01-15T05:31:37;98393.03;;;1.21;83.96
83140;BME280;73027;54.208;19.128;2024-01-15T05:34:03;98379.38;;;1.25;83.66
83140;BME280;73027;54.208;19.128;2024-01-15T05:36:28;98389.56;;;1.24;83.29
83140;BME280;73027;54.208;19.128;2024-01-15T05:38:54;98388.00;;;1.20;83.96
83140;BME280;73027;54.208;19.128;2024-01-15T05:41:19;98388.78;;;1.22;84.02
83140;BME280;73027;54.208;19.128;2024-01-15T05:43:44;98393.13;;;1.18;83.90
83140;BME280;73027;54.208;19.128;2024-01-15T05:46:10;98400.94;;;1.12;83.59
83140;BME280;73027;54.208;19.128;2024-01-15T05:48:36;98383.09;;;1.15;83.73
83140;BME280;73027;54.208;19.128;2024-01-15T05:51:01;98381.28;;;1.19;84.29
83140;BME280;73027;54.208;19.128;2024-01-15T05:53:27;98390.59;;;1.18;84.64
83140;BME280;73027;54.208;19.128;2024-01-15T05:55:52;98379.84;;;1.12;84.30
83140;BME280;73027;54.208;19.128;2024-01-15T05:58:19;98382.19;;;1.16;84.94
83140;BME280;73027;54.208;19.128;2024-01-15T06:00:44;98392.25;;;1.19;84.01
83140;BME280;73027;54.208;19.128;2024-01-15T06:03:11;98384.59;;;1.21;84.20
83140;BME280;73027;54.208;19.128;2024-01-15T06:05:36;98387.84;;;1.24;84.42
83140;BME280;73027;54.208;19.128;2024-01-15T06:08:02;98384.59;;;1.21;84.32
83140;BME280;73027;54.208;19.128;2024-01-15T06:10:27;98385.38;;;1.23;84.25
83140;BME280;73027;54.208;19.128;2024-01-15T06:12:53;98372.78;;;1.20;84.39
83140;BME280;73027;54.208;19.128;2024-01-15T06:15:18;98392.00;;;1.27;83.84
83140;BME280;73027;54.208;19.128;2024-01-15T06:17:46;98388.50;;;1.31;84.31
83140;BME280;73027;54.208;19.128;2024-01-15T06:20:11;98376.47;;;1.36;83.57
83140;BME280;73027;54.208;19.128;2024-01-15T06:22:37;98376.47;;;1.36;82.77
83140;BME280;73027;54.208;19.128;2024-01-15T06:25:08;98380.53;;;1.40;82.44
83140;BME280;73027;54.208;19.128;2024-01-15T06:27:34;98379.63;;;1.42;82.62
83140;BME280;73027;54.208;19.128;2024-01-15T06:29:59;98391.16;;;1.51;82.89
83140;BME280;73027;54.208;19.128;2024-01-15T06:32:25;98385.31;;;1.49;81.80
83140;BME280;73027;54.208;19.128;2024-01-15T06:34:50;98396.13;;;1.54;81.56
83140;BME280;73027;54.208;19.128;2024-01-15T06:37:15;98399.84;;;1.44;80.84
83140;BME280;73027;54.208;19.128;2024-01-15T06:39:41;98407.78;;;1.35;80.48
83140;BME280;73027;54.208;19.128;2024-01-15T06:42:06;98390.56;;;1.43;80.19
83140;BME280;73027;54.208;19.128;2024-01-15T06:44:32;98387.28;;;1.41;80.17
83140;BME280;73027;54.208;19.128;2024-01-15T06:46:57;98390.81;;;1.37;79.46
83140;BME280;73027;54.208;19.128;2024-01-15T06:49:28;98384.31;;;1.28;79.26
83140;BME280;73027;54.208;19.128;2024-01-15T06:51:53;98378.38;;;1.29;79.02
83140;BME280;73027;54.208;19.128;2024-01-15T06:54:19;98368.28;;;1.28;79.38
83140;BME280;73027;54.208;19.128;2024-01-15T06:56:44;98381.66;;;1.33;77.96
83140;BME280;73027;54.208;19.128;2024-01-15T06:59:10;98370.50;;;1.37;78.72
83140;BME280;73027;54.208;19.128;2024-01-15T07:01:35;98373.88;;;1.37;77.80
83140;BME280;73027;54.208;19.128;2024-01-15T07:04:00;98377.84;;;1.44;77.14
83140;BME280;73027;54.208;19.128;2024-01-15T07:06:26;98384.44;;;1.50;77.20
83140;BME280;73027;54.208;19.128;2024-01-15T07:08:52;98380.81;;;1.57;76.81
83140;BME280;73027;54.208;19.128;2024-01-15T07:11:18;98384.78;;;1.64;75.70
83140;BME280;73027;54.208;19.128;2024-01-15T07:13:43;98393.22;;;1.65;75.82
83140;BME280;73027;54.208;19.128;2024-01-15T07:16:09;98392.16;;;1.70;75.36
83140;BME280;73027;54.208;19.128;2024-01-15T07:18:34;98383.50;;;1.76;75.59
83140;BME280;73027;54.208;19.128;2024-01-15T07:20:59;98390.09;;;1.81;75.09
83140;BME280;73027;54.208;19.128;2024-01-15T07:23:26;98390.84;;;1.83;73.87
83140;BME280;73027;54.208;19.128;2024-01-15T07:25:52;98392.72;;;1.78;74.01
83140;BME280;73027;54.208;19.128;2024-01-15T07:28:18;98385.31;;;1.72;74.81
83140;BME280;73027;54.208;19.128;2024-01-15T07:30:44;98379.25;;;1.76;74.39
83140;BME280;73027;54.208;19.128;2024-01-15T07:33:10;98387.03;;;1.72;74.22
83140;BME280;73027;54.208;19.128;2024-01-15T07:35:36;98390.44;;;1.71;74.07
83140;BME280;73027;54.208;19.128;2024-01-15T07:38:07;98381.84;;;1.75;74.45
83140;BME280;73027;54.208;19.128;2024-01-15T07:40:32;98387.59;;;1.80;74.87
83140;BME280;73027;54.208;19.128;2024-01-15T07:42:58;98367.69;;;1.69;74.96
83140;BME280;73027;54.208;19.128;2024-01-15T07:45:23;98386.81;;;1.78;74.99
83140;BME280;73027;54.208;19.128;2024-01-15T07:47:49;98392.16;;;1.70;74.63
83140;BME280;73027;54.208;19.128;2024-01-15T07:50:14;98374.66;;;1.63;75.12
83140;BME280;73027;54.208;19.128;2024-01-15T07:52:40;98381.97;;;1.72;75.89
83140;BME280;73027;54.208;19.128;2024-01-15T07:55:07;98376.94;;;1.70;75.96
83140;BME280;73027;54.208;19.128;2024-01-15T07:57:33;98370.41;;;1.63;75.89
83140;BME280;73027;54.208;19.128;2024-01-15T07:59:58;98378.66;;;1.70;76.12
83140;BME280;73027;54.208;19.128;2024-01-15T08:02:24;98375.66;;;1.59;75.61
83140;BME280;73027;54.208;19.128;2024-01-15T08:04:49;98393.06;;;1.69;75.79
83140;BME280;73027;54.208;19.128;2024-01-15T08:07:14;98371.13;;;1.67;76.08
83140;BME280;73027;54.208;19.128;2024-01-15T08:09:40;98371.81;;;1.72;76.56
83140;BME280;73027;54.208;19.128;2024-01-15T08:12:05;98360.09;;;1.68;76.42
83140;BME280;73027;54.208;19.128;2024-01-15T08:14:31;98354.19;;;1.67;76.24
83140;BME280;73027;54.208;19.128;2024-01-15T08:16:56;98346.88;;;1.60;75.49
83140;BME280;73027;54.208;19.128;2024-01-15T08:19:22;98351.19;;;1.58;76.86
83140;BME280;73027;54.208;19.128;2024-01-15T08:21:47;98352.66;;;1.63;76.07
83140;BME280;73027;54.208;19.128;2024-01-15T08:24:15;98344.56;;;1.77;76.70
83140;BME280;73027;54.208;19.128;2024-01-15T08:26:40;98348.53;;;1.84;75.84
83140;BME280;73027;54.208;19.128;2024-01-15T08:29:06;98358.09;;;1.99;75.93
83140;BME280;73027;54.208;19.128;2024-01-15T08:31:31;98342.63;;;2.05;75.80
83140;BME280;73027;54.208;19.128;2024-01-15T08:33:57;98349.66;;;2.20;75.55
83140;BME280;73027;54.208;19.128;2024-01-15T08:36:23;98343.34;;;2.52;74.94
83140;BME280;73027;54.208;19.128;2024-01-15T08:38:49;98325.84;;;3.07;72.25
83140;BME280;73027;54.208;19.128;2024-01-15T08:41:15;98332.78;;;3.23;71.38
83140;BME280;73027;54.208;19.128;2024-01-15T08:43:40;98338.03;;;2.78;71.77
83140;BME280;73027;54.208;19.128;2024-01-15T08:46:05;98338.22;;;2.54;71.81
83140;BME280;73027;54.208;19.128;2024-01-15T08:48:31;98328.13;;;2.30;72.66
83140;BME280;73027;54.208;19.128;2024-01-15T08:50:57;98324.28;;;2.20;73.08
83140;BME280;73027;54.208;19.128;2024-01-15T08:53:22;98322.34;;;2.27;73.32
83140;BME280;73027;54.208;19.128;2024-01-15T08:55:48;98325.28;;;2.38;73.68
83140;BME280;73027;54.208;19.128;2024-01-15T08:58:14;98317.63;;;2.60;72.08
83140;BME280;73027;54.208;19.128;2024-01-15T09:20:52;98312.28;;;4.90;61.35
83140;BME280;73027;54.208;19.128;2024-01-15T09:23:17;98318.38;;;4.35;63.02
83140;BME280;73027;54.208;19.128;2024-01-15T09:25:42;98329.88;;;3.89;65.45
83140;BME280;73027;54.208;19.128;2024-01-15T09:28:08;98344.84;;;3.57;67.00
83140;BME280;73027;54.208;19.128;2024-01-15T09:30:33;98333.97;;;3.35;67.20
83140;BME280;73027;54.208;19.128;2024-01-15T09:32:59;98322.13;;;3.34;67.78
83140;BME280;73027;54.208;19.128;2024-01-15T09:35:24;98304.97;;;3.19;68.89
83140;BME280;73027;54.208;19.128;2024-01-15T09:37:49;98307.19;;;3.26;69.67
83140;BME280;73027;54.208;19.128;2024-01-15T09:40:15;98299.97;;;4.81;67.68
83140;BME280;73027;54.208;19.128;2024-01-15T09:42:42;98299.53;;;6.34;63.75
83140;BME280;73027;54.208;19.128;2024-01-15T09:45:08;98292.72;;;7.51;57.72
83140;BME280;73027;54.208;19.128;2024-01-15T09:47:35;98303.75;;;8.35;53.18
83140;BME280;73027;54.208;19.128;2024-01-15T09:50:01;98294.84;;;8.80;52.64
83140;BME280;73027;54.208;19.128;2024-01-15T09:52:30;98289.84;;;9.03;50.70
83140;BME280;73027;54.208;19.128;2024-01-15T09:54:57;98281.59;;;9.49;50.29
83140;BME280;73027;54.208;19.128;2024-01-15T09:57:23;98294.53;;;9.96;48.33
83140;BME280;73027;54.208;19.128;2024-01-15T09:59:50;98294.97;;;10.50;47.40
83140;BME280;73027;54.208;19.128;2024-01-15T10:02:18;98282.84;;;10.98;45.27
83140;BME280;73027;54.208;19.128;2024-01-15T10:04:44;98282.63;;;11.13;43.60
83140;BME280;73027;54.208;19.128;2024-01-15T10:07:14;98296.00;;;11.29;41.59
83140;BME280;73027;54.208;19.128;2024-01-15T10:09:41;98282.66;;;11.35;41.81
83140;BME280;73027;54.208;19.128;2024-01-15T10:12:07;98302.53;;;11.22;39.51
83140;BME280;73027;54.208;19.128;2024-01-15T10:14:33;98279.34;;;10.30;42.44
83140;BME280;73027;54.208;19.128;2024-01-15T10:16:58;98283.00;;;11.30;41.24
83140;BME280;73027;54.208;19.128;2024-01-15T10:19:24;98290.06;;;11.73;38.45
83140;BME280;73027;54.208;19.128;2024-01-15T10:21:49;98288.84;;;9.80;39.55
83140;BME280;73027;54.208;19.128;2024-01-15T10:24:14;98283.75;;;8.13;43.64
83140;BME280;73027;54.208;19.128;2024-01-15T10:26:40;98276.41;;;9.74;43.43
83140;BME280;73027;54.208;19.128;2024-01-15T10:29:05;98280.78;;;10.69;40.22
83140;BME280;73027;54.208;19.128;2024-01-15T10:31:31;98263.97;;;10.04;39.82
83140;BME280;73027;54.208;19.128;2024-01-15T10:34:25;98266.56;;;8.01;45.01
83140;BME280;73027;54.208;19.128;2024-01-15T10:36:51;98266.56;;;7.46;47.32
83140;BME280;73027;54.208;19.128;2024-01-15T10:39:23;98263.47;;;7.41;47.71
83140;BME280;73027;54.208;19.128;2024-01-15T10:41:50;98268.13;;;8.70;45.52
83140;BME280;73027;54.208;19.128;2024-01-15T10:44:18;98262.56;;;7.28;45.99
83140;BME280;73027;54.208;19.128;2024-01-15T10:46:45;98257.38;;;6.71;47.73
83140;BME280;73027;54.208;19.128;2024-01-15T10:49:11;98263.38;;;5.63;50.81
83140;BME280;73027;54.208;19.128;2024-01-15T10:51:39;98278.78;;;5.29;51.43
83140;BME280;73027;54.208;19.128;2024-01-15T10:54:05;98262.84;;;4.58;53.25
83140;BME280;73027;54.208;19.128;2024-01-15T10:56:35;98274.69;;;4.42;54.66
83140;BME280;73027;54.208;19.128;2024-01-15T10:59:01;98266.75;;;4.65;56.03
83140;BME280;73027;54.208;19.128;2024-01-15T11:01:28;98275.28;;;4.13;56.12
83140;BME280;73027;54.208;19.128;2024-01-15T11:03:54;98289.47;;;3.81;56.97
83140;BME280;73027;54.208;19.128;2024-01-15T11:06:24;98293.31;;;3.52;58.39
83140;BME280;73027;54.208;19.128;2024-01-15T11:08:51;98282.03;;;3.20;60.51
83140;BME280;73027;54.208;19.128;2024-01-15T11:11:17;98283.06;;;2.96;61.83
83140;BME280;73027;54.208;19.128;2024-01-15T11:13:43;98288.41;;;2.90;62.17
83140;BME280;73027;54.208;19.128;2024-01-15T11:16:13;98290.44;;;2.62;64.18
83140;BME280;73027;54.208;19.128;2024-01-15T11:19:02;98286.91;;;2.44;65.18
83140;BME280;73027;54.208;19.128;2024-01-15T11:21:28;98273.81;;;2.33;65.88
83140;BME280;73027;54.208;19.128;2024-01-15T11:24:00;98250.53;;;2.44;66.16
83140;BME280;73027;54.208;19.128;2024-01-15T11:26:32;98270.16;;;3.01;66.54
83140;BME280;73027;54.208;19.128;2024-01-15T11:29:00;98244.47;;;5.19;59.91
83140;BME280;73027;54.208;19.128;2024-01-15T11:31:30;98256.41;;;4.86;57.99
83140;BME280;73027;54.208;19.128;2024-01-15T11:34:12;98248.69;;;4.70;57.40
83140;BME280;73027;54.208;19.128;2024-01-15T11:42:03;98246.28;;;3.42;64.19
83140;BME280;73027;54.208;19.128;2024-01-15T11:44:29;98238.56;;;3.25;65.67
83140;BME280;73027;54.208;19.128;2024-01-15T11:52:10;98219.69;;;2.92;66.55
83140;BME280;73027;54.208;19.128;2024-01-15T11:54:38;98241.38;;;3.56;64.20
83140;BME280;73027;54.208;19.128;2024-01-15T11:57:10;98231.94;;;5.14;62.34
83140;BME280;73027;54.208;19.128;2024-01-15T11:59:41;98246.28;;;7.29;52.94
83140;BME280;73027;54.208;19.128;2024-01-15T12:02:06;98224.88;;;11.48;44.86
83140;BME280;73027;54.208;19.128;2024-01-15T12:04:32;98223.19;;;12.76;38.75
83140;BME280;73027;54.208;19.128;2024-01-15T12:06:57;98224.66;;;9.79;41.44
83140;BME280;73027;54.208;19.128;2024-01-15T12:09:23;98210.56;;;7.95;46.37
83140;BME280;73027;54.208;19.128;2024-01-15T12:11:54;98209.94;;;6.51;49.01
83140;BME280;73027;54.208;19.128;2024-01-15T12:14:24;98215.28;;;5.40;50.66
83140;BME280;73027;54.208;19.128;2024-01-15T12:16:50;98205.44;;;4.84;53.73
83140;BME280;73027;54.208;19.128;2024-01-15T12:19:16;98206.84;;;4.22;55.22
83140;BME280;73027;54.208;19.128;2024-01-15T12:21:41;98199.84;;;3.74;57.52
83140;BME280;73027;54.208;19.128;2024-01-15T12:24:07;98192.97;;;3.94;57.32
83140;BME280;73027;54.208;19.128;2024-01-15T12:26:33;98201.47;;;3.75;57.43
83140;BME280;73027;54.208;19.128;2024-01-15T12:29:02;98196.50;;;3.55;58.44
83140;BME280;73027;54.208;19.128;2024-01-15T12:31:27;98189.41;;;3.43;58.02
83140;BME280;73027;54.208;19.128;2024-01-15T12:33:55;98200.75;;;3.36;58.96
83140;BME280;73027;54.208;19.128;2024-01-15T12:36:21;98225.44;;;3.15;59.84
83140;BME280;73027;54.208;19.128;2024-01-15T12:38:46;98203.31;;;2.78;61.40
83140;BME280;73027;54.208;19.128;2024-01-15T12:41:12;98179.34;;;2.45;63.33
83140;BME280;73027;54.208;19.128;2024-01-15T12:43:38;98184.75;;;2.37;64.49
83140;BME280;73027;54.208;19.128;2024-01-15T12:46:03;98206.44;;;2.24;65.95
83140;BME280;73027;54.208;19.128;2024-01-15T12:48:29;98199.22;;;2.15;66.54
83140;BME280;73027;54.208;19.128;2024-01-15T12:50:55;98198.69;;;2.07;66.97
83140;BME280;73027;54.208;19.128;2024-01-15T12:53:20;98191.53;;;2.37;66.83
83140;BME280;73027;54.208;19.128;2024-01-15T12:55:46;98191.31;;;4.10;61.80
83140;BME280;73027;54.208;19.128;2024-01-15T12:58:12;98194.44;;;5.48;58.70
83140;BME280;73027;54.208;19.128;2024-01-15T13:00:37;98193.34;;;4.38;57.40
83140;BME280;73027;54.208;19.128;2024-01-15T13:03:03;98199.13;;;3.71;60.23
83140;BME280;73027;54.208;19.128;2024-01-15T13:05:29;98199.34;;;4.87;61.24
83140;BME280;73027;54.208;19.128;2024-01-15T13:07:56;98198.09;;;6.79;55.74
83140;BME280;73027;54.208;19.128;2024-01-15T13:10:22;98201.31;;;9.82;48.06
83140;BME280;73027;54.208;19.128;2024-01-15T13:12:47;98212.97;;;12.02;38.40
83140;BME280;73027;54.208;19.128;2024-01-15T13:15:12;98196.00;;;10.55;38.37
83140;BME280;73027;54.208;19.128;2024-01-15T13:17:39;98219.50;;;7.75;44.34
83140;BME280;73027;54.208;19.128;2024-01-15T13:20:06;98188.56;;;7.78;48.18
83140;BME280;73027;54.208;19.128;2024-01-15T13:22:31;98194.09;;;7.17;46.41
83140;BME280;73027;54.208;19.128;2024-01-15T13:24:58;98197.16;;;4.96;53.22